createdAt,value
2022-10-04T00:00:11.518Z,12.17
2022-10-04T00:02:46.806Z,12.11
2022-10-04T00:05:19.019Z,12.20
2022-10-04T00:07:52.447Z,12.23
2022-10-04T00:10:23.287Z,12.22
2022-10-04T00:12:54.231Z,12.25
2022-10-04T00:15:26.660Z,12.27
2022-10-04T00:18:08.922Z,12.29
2022-10-04T00:21:03.785Z,12.29
2022-10-04T00:23:44.369Z,12.23
2022-10-04T00:26:36.505Z,12.26
2022-10-04T00:29:30.739Z,12.27
2022-10-04T00:32:30.747Z,12.26
2022-10-04T00:35:00.906Z,12.33
2022-10-04T00:37:49.059Z,12.29
2022-10-04T00:40:21.430Z,12.26
2022-10-04T00:42:58.723Z,12.31
2022-10-04T00:45:35.037Z,12.36
2022-10-04T00:48:21.007Z,12.35
2022-10-04T00:50:55.343Z,12.27
2022-10-04T00:53:49.027Z,12.35
2022-10-04T00:56:25.103Z,12.22
2022-10-04T00:59:30.447Z,12.03
2022-10-04T01:02:03.525Z,12.14
2022-10-04T01:04:43.388Z,12.14
2022-10-04T01:07:17.604Z,12.18
2022-10-04T01:09:51.226Z,12.14
2022-10-04T01:12:32.965Z,12.10
2022-10-04T01:15:07.448Z,12.11
2022-10-04T01:17:35.463Z,12.14
2022-10-04T01:20:03.808Z,12.18
2022-10-04T01:22:39.039Z,12.13
2022-10-04T01:25:07.413Z,12.10
2022-10-04T01:27:38.808Z,12.11
2022-10-04T01:30:10.226Z,12.06
2022-10-04T01:32:40.171Z,12.06
2022-10-04T01:35:10.655Z,12.11
2022-10-04T01:37:40.623Z,12.11
2022-10-04T01:40:10.430Z,12.14
2022-10-04T01:42:44.651Z,12.18
2022-10-04T01:45:20.559Z,12.26
2022-10-04T01:47:54.145Z,12.35
2022-10-04T01:50:28.715Z,12.27
2022-10-04T01:53:07.774Z,12.31
2022-10-04T01:55:38.343Z,12.26
2022-10-04T01:58:12.318Z,12.27
2022-10-04T02:00:45.002Z,12.34
2022-10-04T02:03:19.048Z,12.28
2022-10-04T02:05:52.732Z,12.29
2022-10-04T02:08:30.629Z,12.30
2022-10-04T02:11:00.628Z,12.47
2022-10-04T02:13:35.306Z,12.34
2022-10-04T02:16:04.140Z,12.37
2022-10-04T02:18:34.282Z,12.34
2022-10-04T02:21:03.773Z,12.38
2022-10-04T02:23:34.250Z,12.40
2022-10-04T02:26:05.904Z,12.23
2022-10-04T02:28:34.778Z,12.29
2022-10-04T02:31:20.806Z,12.23
2022-10-04T02:33:51.766Z,12.28
2022-10-04T02:36:24.939Z,12.27
2022-10-04T02:39:00.375Z,12.32
2022-10-04T02:41:33.804Z,12.42
2022-10-04T02:44:06.232Z,12.33
2022-10-04T02:46:38.009Z,12.25
2022-10-04T02:49:11.786Z,12.28
2022-10-04T02:51:45.316Z,12.30
2022-10-04T02:54:30.086Z,12.30
2022-10-04T02:56:59.482Z,12.21
2022-10-04T02:59:27.565Z,12.19
2022-10-04T03:01:57.636Z,12.13
2022-10-04T03:04:28.544Z,12.09
2022-10-04T03:06:58.658Z,12.14
2022-10-04T03:09:30.083Z,12.16
2022-10-04T03:11:59.059Z,12.22
2022-10-04T03:14:28.848Z,12.29
2022-10-04T03:17:01.633Z,12.33
2022-10-04T03:19:32.379Z,12.33
2022-10-04T03:22:03.353Z,12.38
2022-10-04T03:24:37.538Z,12.32
2022-10-04T03:27:09.306Z,12.35
2022-10-04T03:29:42.784Z,12.42
2022-10-04T03:32:15.005Z,12.32
2022-10-04T03:34:49.455Z,12.32
2022-10-04T03:37:21.538Z,12.27
2022-10-04T03:39:54.048Z,12.32
2022-10-04T03:42:24.345Z,12.29
2022-10-04T03:44:56.283Z,12.29
2022-10-04T03:47:28.886Z,12.33
2022-10-04T03:49:59.473Z,12.33
2022-10-04T03:52:32.154Z,12.36
2022-10-04T03:55:06.724Z,12.45
2022-10-04T03:57:37.974Z,12.37
2022-10-04T04:00:07.725Z,12.37
2022-10-04T04:02:46.149Z,12.27
2022-10-04T04:05:20.129Z,12.39
2022-10-04T04:07:54.213Z,12.24
2022-10-04T04:10:27.300Z,12.24
2022-10-04T04:12:58.283Z,12.18
2022-10-04T04:15:31.137Z,12.11
2022-10-04T04:18:03.512Z,12.11
2022-10-04T04:20:33.876Z,12.03
2022-10-04T04:23:05.213Z,12.02
2022-10-04T04:25:41.989Z,12.14
2022-10-04T04:28:25.548Z,12.09
2022-10-04T04:30:57.734Z,12.04
2022-10-04T04:33:31.142Z,12.07
2022-10-04T04:36:06.442Z,12.11
2022-10-04T04:38:35.598Z,12.04
2022-10-04T04:41:11.646Z,12.06
2022-10-04T04:43:44.654Z,12.02
2022-10-04T04:46:28.475Z,12.10
2022-10-04T04:49:01.848Z,12.11
2022-10-04T04:51:31.536Z,11.93
2022-10-04T04:54:03.382Z,11.99
2022-10-04T04:56:32.953Z,11.93
2022-10-04T04:59:04.377Z,11.95
2022-10-04T05:01:36.386Z,11.99
2022-10-04T05:04:07.420Z,11.92
2022-10-04T05:06:37.150Z,11.89
2022-10-04T05:09:06.442Z,11.90
2022-10-04T05:11:38.619Z,12.02
2022-10-04T05:14:10.120Z,11.90
2022-10-04T05:16:43.574Z,11.90
2022-10-04T05:19:16.792Z,11.95
2022-10-04T05:21:47.671Z,11.95
2022-10-04T05:24:22.593Z,11.99
2022-10-04T05:26:55.271Z,12.00
2022-10-04T05:29:27.895Z,11.98
2022-10-04T05:32:07.045Z,11.95
2022-10-04T05:34:40.034Z,11.98
2022-10-04T05:37:22.318Z,12.00
2022-10-04T05:40:00.280Z,11.95
2022-10-04T05:42:37.754Z,11.96
2022-10-04T05:45:15.758Z,12.03
2022-10-04T05:47:44.837Z,12.01
2022-10-04T05:50:18.704Z,12.05
2022-10-04T05:52:50.187Z,12.13
2022-10-04T05:55:27.118Z,12.19
2022-10-04T05:58:18.141Z,12.13
2022-10-04T06:01:03.082Z,12.14
2022-10-04T06:03:44.482Z,12.19
2022-10-04T06:06:20.071Z,12.25
2022-10-04T06:09:09.404Z,12.22
2022-10-04T06:11:49.693Z,12.12
2022-10-04T06:14:39.109Z,12.15
2022-10-04T06:17:22.228Z,12.21
2022-10-04T06:20:09.727Z,12.28
2022-10-04T06:22:44.698Z,12.36
2022-10-04T06:25:26.376Z,12.48
2022-10-04T06:28:03.342Z,12.55
2022-10-04T06:30:43.491Z,12.56
2022-10-04T06:33:32.767Z,12.64
2022-10-04T06:36:16.132Z,12.69
2022-10-04T06:39:04.038Z,12.71
2022-10-04T06:41:54.740Z,12.76
2022-10-04T06:44:40.067Z,12.73
2022-10-04T06:47:26.075Z,12.88
2022-10-04T06:49:57.958Z,12.96
2022-10-04T06:52:34.639Z,13.04
2022-10-04T06:55:21.478Z,13.20
2022-10-04T06:58:10.302Z,13.32
2022-10-04T07:00:45.995Z,13.35
2022-10-04T07:03:21.662Z,13.42
2022-10-04T07:05:55.273Z,13.65
2022-10-04T07:08:34.121Z,13.72
2022-10-04T07:11:12.196Z,13.82
2022-10-04T07:13:46.701Z,13.90
2022-10-04T07:16:30.331Z,13.96
2022-10-04T07:19:09.643Z,14.02
2022-10-04T07:21:45.403Z,14.08
2022-10-04T07:24:22.445Z,14.15
2022-10-04T07:26:53.579Z,14.21
2022-10-04T07:29:24.736Z,14.37
2022-10-04T07:32:05.629Z,14.38
2022-10-04T07:34:41.989Z,14.41
2022-10-04T07:37:12.797Z,14.49
2022-10-04T07:39:47.396Z,14.59
2022-10-04T07:42:26.873Z,14.68
2022-10-04T07:45:10.959Z,14.53
2022-10-04T07:47:39.374Z,14.57
2022-10-04T07:50:29.419Z,14.63
2022-10-04T07:53:05.898Z,14.65
2022-10-04T07:55:46.845Z,14.59
2022-10-04T07:58:29.407Z,14.49
2022-10-04T08:01:01.787Z,14.43
2022-10-04T08:03:59.618Z,14.37
2022-10-04T08:06:37.556Z,14.40
2022-10-04T08:09:24.889Z,14.30
2022-10-04T08:12:03.299Z,14.25
2022-10-04T08:14:51.225Z,14.22
2022-10-04T08:17:29.774Z,14.17
2022-10-04T08:20:08.629Z,14.25
2022-10-04T08:22:52.045Z,14.37
2022-10-04T08:25:25.250Z,14.51
2022-10-04T08:28:20.859Z,14.57
2022-10-04T08:31:05.112Z,14.73
2022-10-04T08:33:52.234Z,14.74
2022-10-04T08:36:34.139Z,14.91
2022-10-04T08:39:08.028Z,15.00
2022-10-04T08:42:07.242Z,14.96
2022-10-04T08:45:12.385Z,14.90
2022-10-04T08:48:24.837Z,14.94
2022-10-04T08:51:52.302Z,14.85
2022-10-04T08:54:57.068Z,14.95
2022-10-04T08:57:51.693Z,15.02
2022-10-04T09:00:24.272Z,14.99
2022-10-04T09:03:39.836Z,15.06
2022-10-04T09:06:33.415Z,15.09
2022-10-04T09:09:40.696Z,15.09
2022-10-04T09:12:29.947Z,15.14
2022-10-04T09:15:27.089Z,15.17
2022-10-04T09:18:02.819Z,15.22
2022-10-04T09:20:49.524Z,15.25
2022-10-04T09:23:42.789Z,15.21
2022-10-04T09:26:22.160Z,15.23
2022-10-04T09:29:41.728Z,15.31
2022-10-04T09:32:29.177Z,15.36
2022-10-04T09:35:17.583Z,15.35
2022-10-04T09:38:06.708Z,15.32
2022-10-04T09:41:15.690Z,15.42
2022-10-04T09:44:24.866Z,15.55
2022-10-04T09:47:06.239Z,15.57
2022-10-04T09:50:13.821Z,15.68
2022-10-04T09:52:49.574Z,15.83
2022-10-04T09:55:36.504Z,15.96
2022-10-04T09:58:29.380Z,16.03
2022-10-04T10:01:05.129Z,15.98
2022-10-04T10:03:52.943Z,15.92
2022-10-04T10:06:36.855Z,15.87
2022-10-04T10:09:43.491Z,15.79
2022-10-04T10:12:45.484Z,15.81
2022-10-04T10:15:31.427Z,15.95
2022-10-04T10:18:10.068Z,15.86
2022-10-04T10:21:06.313Z,15.77
2022-10-04T10:23:58.464Z,15.66
2022-10-04T10:26:44.388Z,15.90
2022-10-04T10:29:41.343Z,15.93
2022-10-04T10:32:37.191Z,16.07
2022-10-04T10:35:24.767Z,16.09
2022-10-04T10:38:09.727Z,16.07
2022-10-04T10:40:52.893Z,15.98
2022-10-04T10:43:36.080Z,16.07
2022-10-04T10:46:16.860Z,16.13
2022-10-04T10:49:03.866Z,16.28
2022-10-04T10:52:02.411Z,16.35
2022-10-04T10:55:06.809Z,16.33
2022-10-04T10:58:04.375Z,16.42
2022-10-04T11:00:46.132Z,16.47
2022-10-04T11:03:32.526Z,16.58
2022-10-04T11:06:15.477Z,16.62
2022-10-04T11:09:12.194Z,16.60
2022-10-04T11:12:14.366Z,16.67
2022-10-04T11:15:07.264Z,16.74
2022-10-04T11:18:15.237Z,16.76
2022-10-04T11:21:03.510Z,16.74
2022-10-04T11:24:06.505Z,16.77
2022-10-04T11:27:01.572Z,16.69
2022-10-04T11:29:48.852Z,16.76
2022-10-04T11:33:06.060Z,16.86
2022-10-04T11:36:12.639Z,16.68
2022-10-04T11:38:56.144Z,16.76
2022-10-04T11:41:35.404Z,16.77
2022-10-04T11:44:22.190Z,16.74
2022-10-04T11:46:57.836Z,16.76
2022-10-04T11:49:56.607Z,16.74
2022-10-04T11:52:57.636Z,16.75
2022-10-04T11:56:04.519Z,16.79
2022-10-04T11:58:46.394Z,16.79
2022-10-04T12:01:46.850Z,16.80
2022-10-04T12:04:59.341Z,16.81
2022-10-04T12:07:39.892Z,16.77
2022-10-04T12:10:22.942Z,16.89
2022-10-04T12:13:24.407Z,16.94
2022-10-04T12:16:11.765Z,16.95
2022-10-04T12:19:15.593Z,17.09
2022-10-04T12:21:59.348Z,17.08
2022-10-04T12:24:53.793Z,17.10
2022-10-04T12:27:52.342Z,17.03
2022-10-04T12:30:28.627Z,17.05
2022-10-04T12:33:12.942Z,17.15
2022-10-04T12:36:04.259Z,17.25
2022-10-04T12:39:02.654Z,17.29
2022-10-04T12:41:38.089Z,17.21
2022-10-04T12:44:23.467Z,17.28
2022-10-04T12:47:01.014Z,17.33
2022-10-04T12:49:45.318Z,17.33
2022-10-04T12:52:21.014Z,17.35
2022-10-04T12:54:58.214Z,17.32
2022-10-04T12:57:47.457Z,17.25
2022-10-04T13:00:20.489Z,17.34
2022-10-04T13:03:09.811Z,17.28
2022-10-04T13:09:03.453Z,17.45
2022-10-04T13:11:52.584Z,17.45
2022-10-04T13:14:41.645Z,17.51
2022-10-04T13:17:35.241Z,17.46
2022-10-04T13:20:28.423Z,17.46
2022-10-04T13:23:08.351Z,17.43
2022-10-04T13:26:15.423Z,17.44
2022-10-04T13:28:55.862Z,17.49
2022-10-04T13:31:33.466Z,17.46
2022-10-04T13:34:11.896Z,17.55
2022-10-04T13:36:56.046Z,17.48
2022-10-04T13:39:44.883Z,17.42
2022-10-04T13:42:39.601Z,17.46
2022-10-04T13:45:26.063Z,17.43
2022-10-04T13:48:21.985Z,17.53
2022-10-04T13:51:15.372Z,17.54
2022-10-04T13:54:09.360Z,17.54
2022-10-04T13:56:57.787Z,17.59
2022-10-04T13:59:42.358Z,17.52
2022-10-04T14:02:32.141Z,17.46
2022-10-04T14:05:47.754Z,17.55
2022-10-04T14:08:33.324Z,17.51
2022-10-04T14:11:33.288Z,17.49
2022-10-04T14:14:23.870Z,17.51
2022-10-04T14:17:22.921Z,17.51
2022-10-04T14:20:24.610Z,17.54
2022-10-04T14:23:23.640Z,17.60
2022-10-04T14:26:11.512Z,17.64
2022-10-04T14:29:15.962Z,17.49
2022-10-04T14:32:23.039Z,17.54
2022-10-04T14:35:02.301Z,17.52
2022-10-04T14:37:54.989Z,17.51
2022-10-04T14:40:47.873Z,17.45
2022-10-04T14:43:46.583Z,17.42
2022-10-04T14:46:22.696Z,17.38
2022-10-04T14:49:05.508Z,17.37
2022-10-04T14:52:06.617Z,17.42
2022-10-04T14:54:46.391Z,17.42
2022-10-04T14:57:22.885Z,17.43
2022-10-04T15:00:21.859Z,17.44
2022-10-04T15:03:14.878Z,17.44
2022-10-04T15:06:00.193Z,17.45
2022-10-04T15:08:58.267Z,17.47
2022-10-04T15:23:48.710Z,17.59
2022-10-04T15:29:24.162Z,17.47
2022-10-04T15:32:05.122Z,17.48
2022-10-04T15:34:42.248Z,17.46
2022-10-04T15:37:25.599Z,17.30
2022-10-04T15:40:10.487Z,17.45
2022-10-04T15:42:41.246Z,17.49
2022-10-04T15:45:36.434Z,17.40
2022-10-04T15:48:25.120Z,17.40
2022-10-04T15:51:12.016Z,17.38
2022-10-04T15:53:59.644Z,17.31
2022-10-04T15:56:37.818Z,17.31
2022-10-04T15:59:26.287Z,17.29
2022-10-04T16:02:25.549Z,17.25
2022-10-04T16:05:05.156Z,17.13
2022-10-04T16:07:55.792Z,17.08
2022-10-04T16:10:32.736Z,16.97
2022-10-04T16:13:34.248Z,16.95
2022-10-04T16:16:41.367Z,16.76
2022-10-04T16:19:28.744Z,16.60
2022-10-04T16:22:16.141Z,16.45
2022-10-04T16:24:51.355Z,16.44
2022-10-04T16:27:43.203Z,16.41
2022-10-04T16:30:27.203Z,16.26
2022-10-04T16:33:32.292Z,16.11
2022-10-04T16:36:14.821Z,16.10
2022-10-04T16:39:02.003Z,16.01
2022-10-04T16:41:40.076Z,15.94
2022-10-04T16:44:28.895Z,15.84
2022-10-04T16:47:03.544Z,15.73
2022-10-04T16:49:41.348Z,15.63
2022-10-04T16:52:35.668Z,15.60
2022-10-04T16:55:47.164Z,15.44
2022-10-04T16:58:57.304Z,15.38
2022-10-04T17:02:07.927Z,15.31
2022-10-04T17:05:16.473Z,15.21
2022-10-04T17:08:04.728Z,15.11
2022-10-04T17:10:41.215Z,15.07
2022-10-04T17:13:23.274Z,15.01
2022-10-04T17:16:02.694Z,14.94
2022-10-04T17:18:44.805Z,14.88
2022-10-04T17:21:29.278Z,14.90
2022-10-04T17:24:20.059Z,14.84
2022-10-04T17:27:07.413Z,14.70
2022-10-04T17:29:49.384Z,14.65
2022-10-04T17:32:27.404Z,14.57
2022-10-04T17:35:13.726Z,14.56
2022-10-04T17:37:51.243Z,14.51
2022-10-04T17:40:33.121Z,14.57
2022-10-04T17:43:08.064Z,14.51
2022-10-04T17:46:09.946Z,14.56
2022-10-04T17:49:05.031Z,14.60
2022-10-04T17:51:59.805Z,14.51
2022-10-04T17:54:49.986Z,14.44
2022-10-04T17:57:27.066Z,14.31
2022-10-04T18:00:01.111Z,14.45
2022-10-04T18:02:46.220Z,14.37
2022-10-04T18:05:19.578Z,14.32
2022-10-04T18:07:55.819Z,14.21
2022-10-04T18:10:29.948Z,14.16
2022-10-04T18:13:04.683Z,14.07
2022-10-04T18:15:37.465Z,14.13
2022-10-04T18:18:16.921Z,14.06
2022-10-04T18:21:05.282Z,14.04
2022-10-04T18:23:39.854Z,13.96
2022-10-04T18:26:17.640Z,14.03
2022-10-04T18:28:49.203Z,14.00
2022-10-04T18:31:25.462Z,14.04
2022-10-04T18:33:54.310Z,14.03
2022-10-04T18:36:27.460Z,14.13
2022-10-04T18:39:20.771Z,14.04
2022-10-04T18:41:59.275Z,14.00
2022-10-04T18:44:31.283Z,14.01
2022-10-04T18:47:02.435Z,14.01
2022-10-04T18:49:33.900Z,13.99
2022-10-04T18:52:14.374Z,13.96
2022-10-04T18:54:50.526Z,13.92
2022-10-04T18:57:32.423Z,13.92
2022-10-04T19:00:28.119Z,13.92
2022-10-04T19:03:10.035Z,13.88
2022-10-04T19:05:44.447Z,13.83
2022-10-04T19:08:30.018Z,13.78
2022-10-04T19:11:04.149Z,13.78
2022-10-04T19:13:43.146Z,13.71
2022-10-04T19:16:35.177Z,13.67
2022-10-04T19:19:28.346Z,13.70
2022-10-04T19:22:02.787Z,13.62
2022-10-04T19:24:57.837Z,13.62
2022-10-04T19:27:31.165Z,13.55
2022-10-04T19:30:15.339Z,13.57
2022-10-04T19:33:10.656Z,13.53
2022-10-04T19:36:00.357Z,13.49
2022-10-04T20:06:11.422Z,13.23
2022-10-04T20:08:59.396Z,13.22
2022-10-04T20:11:48.396Z,13.21
2022-10-04T20:14:47.039Z,13.17
2022-10-04T20:17:34.058Z,13.15
2022-10-04T20:20:03.009Z,13.11
2022-10-04T20:23:00.537Z,13.11
2022-10-04T20:26:06.276Z,13.11
2022-10-04T20:28:43.367Z,13.05
2022-10-04T20:31:13.361Z,13.01
2022-10-04T20:33:56.692Z,12.97
2022-10-04T20:36:50.920Z,13.02
2022-10-04T20:40:00.905Z,13.00
2022-10-04T20:42:40.653Z,13.04
2022-10-04T20:45:23.347Z,13.05
2022-10-04T20:47:54.774Z,13.07
2022-10-04T20:50:43.170Z,12.96
2022-10-04T20:53:18.599Z,12.99
2022-10-04T20:55:46.909Z,12.98
2022-10-04T20:58:32.270Z,12.99
2022-10-04T21:01:13.958Z,12.94
2022-10-04T21:03:41.959Z,12.86
2022-10-04T21:06:11.935Z,12.77
2022-10-04T21:08:40.888Z,12.79
2022-10-04T21:11:21.376Z,12.74
2022-10-04T21:13:57.009Z,12.74
2022-10-04T21:16:43.209Z,12.71
2022-10-04T21:19:32.125Z,12.70
2022-10-04T21:22:01.256Z,12.65
2022-10-04T21:24:35.951Z,12.65
2022-10-04T21:27:05.269Z,12.55
2022-10-04T21:29:34.543Z,12.58
2022-10-04T21:32:03.380Z,12.55
2022-10-04T21:34:51.901Z,12.50
2022-10-04T21:37:19.375Z,12.51
2022-10-04T21:39:47.496Z,12.50
2022-10-04T21:42:16.867Z,12.55
2022-10-04T21:44:46.321Z,12.63
2022-10-04T21:47:15.662Z,12.69
2022-10-04T21:49:43.718Z,12.68
2022-10-04T21:52:11.940Z,12.71
2022-10-04T21:54:43.444Z,12.73
2022-10-04T21:57:11.611Z,12.82
2022-10-04T21:59:39.550Z,12.82
2022-10-04T22:02:09.313Z,12.81
2022-10-04T22:04:38.114Z,12.82
2022-10-04T22:07:07.874Z,12.81
2022-10-04T22:09:36.042Z,12.86
2022-10-04T22:12:04.124Z,12.87
2022-10-04T22:14:32.449Z,12.88
2022-10-04T22:17:02.603Z,12.88
2022-10-04T22:19:32.200Z,12.86
2022-10-04T22:22:00.201Z,12.89
2022-10-04T22:24:28.560Z,12.91
2022-10-04T22:26:58.372Z,12.89
2022-10-04T22:29:27.984Z,12.88
2022-10-04T22:31:56.130Z,12.88
2022-10-04T22:34:24.129Z,12.90
2022-10-04T22:36:53.831Z,12.91
2022-10-04T22:39:22.802Z,12.89
2022-10-04T22:41:56.502Z,12.90
2022-10-04T22:44:28.866Z,12.87
2022-10-04T22:46:59.977Z,12.82
2022-10-04T22:49:30.885Z,12.86
2022-10-04T22:52:02.012Z,12.81
2022-10-04T22:54:33.664Z,12.79
2022-10-04T22:57:01.659Z,12.78
2022-10-04T22:59:36.278Z,12.86
2022-10-04T23:02:07.918Z,12.80
2022-10-04T23:04:35.861Z,12.77
2022-10-04T23:07:05.188Z,12.73
2022-10-04T23:09:33.158Z,12.80
2022-10-04T23:12:01.186Z,12.75
2022-10-04T23:14:29.055Z,12.79
2022-10-04T23:16:56.918Z,12.80
2022-10-04T23:19:25.854Z,12.85
2022-10-04T23:21:53.803Z,12.95
2022-10-04T23:24:23.946Z,12.93
2022-10-04T23:26:57.351Z,12.92
2022-10-04T23:29:27.246Z,12.96
2022-10-04T23:31:56.876Z,12.96
2022-10-04T23:34:30.419Z,13.02
2022-10-04T23:36:58.423Z,12.98
2022-10-04T23:39:31.199Z,12.98
2022-10-04T23:41:59.418Z,12.92
2022-10-04T23:44:38.096Z,12.90
2022-10-04T23:47:12.546Z,12.91
2022-10-04T23:49:40.712Z,12.90
2022-10-04T23:52:14.621Z,12.86
2022-10-04T23:54:44.136Z,12.82
2022-10-04T23:57:17.330Z,12.82
2022-10-04T23:59:45.241Z,12.73
